Time;durP1;ratioP1;P1;durP2;ratioP2;P2;SDS_P1;SDS_P2;PMS_P1;PMS_P2;Temp;Humidity;BMP_temperature;BMP_pressure;BME280_temperature;BME280_humidity;BME280_pressure;Samples;Min_cycle;Max_cycle;Signal;HPM_P1;HPM_P2
2023/02/28 00:01:33;;;;;;;0.32;0.32;;;;;;;;;;5031260;28;20251;-73
2023/02/28 00:04:09;;;;;;;0.40;0.40;;;;;;;;;;5034953;28;20716;-74
2023/02/28 00:06:45;;;;;;;0.35;0.35;;;;;;;;;;5038921;28;20229;-73
2023/02/28 00:09:14;;;;;;;0.45;0.45;;;;;;;;;;5039624;28;20215;-72
2023/02/28 00:11:43;;;;;;;0.30;0.30;;;;;;;;;;5039181;28;20634;-72
2023/02/28 00:14:11;;;;;;;0.40;0.38;;;;;;;;;;5040733;28;20489;-72
2023/02/28 00:16:43;;;;;;;0.30;0.30;;;;;;;;;;5039997;28;20698;-72
2023/02/28 00:19:15;;;;;;;0.98;0.98;;;;;;;;;;5041792;28;20230;-72
2023/02/28 00:21:47;;;;;;;0.80;0.80;;;;;;;;;;5043672;28;20312;-73
2023/02/28 00:24:16;;;;;;;0.20;0.20;;;;;;;;;;5038894;28;20226;-72
2023/02/28 00:26:46;;;;;;;1.02;1.02;;;;;;;;;;5083966;27;20224;-72
2023/02/28 00:29:14;;;;;;;0.28;0.28;;;;;;;;;;5102166;27;20244;-72
2023/02/28 00:31:43;;;;;;;0.47;0.47;;;;;;;;;;5120462;27;20280;-73
2023/02/28 00:34:11;;;;;;;0.50;0.50;;;;;;;;;;5104044;27;20583;-73
2023/02/28 00:36:38;;;;;;;0.25;0.25;;;;;;;;;;5085314;27;20227;-72
2023/02/28 00:39:09;;;;;;;0.85;0.85;;;;;;;;;;5120070;27;20229;-73
2023/02/28 00:41:40;;;;;;;0.40;0.40;;;;;;;;;;5065119;27;20239;-73
2023/02/28 00:44:12;;;;;;;0.80;0.80;;;;;;;;;;5038631;28;20231;-72
2023/02/28 00:46:42;;;;;;;0.30;0.30;;;;;;;;;;5038536;28;20254;-72
2023/02/28 00:49:09;;;;;;;0.30;0.30;;;;;;;;;;5038188;28;20227;-72
2023/02/28 00:51:37;;;;;;;0.60;0.60;;;;;;;;;;5038508;28;20226;-73
2023/02/28 00:54:05;;;;;;;0.20;0.20;;;;;;;;;;5038139;28;20230;-73
2023/02/28 00:56:33;;;;;;;0.52;0.52;;;;;;;;;;5038358;28;20236;-73
2023/02/28 00:59:01;;;;;;;0.32;0.32;;;;;;;;;;5037950;28;20243;-72
2023/02/28 01:01:32;;;;;;;0.30;0.30;;;;;;;;;;5038641;28;20246;-72
2023/02/28 01:04:00;;;;;;;0.63;0.63;;;;;;;;;;5034505;28;20232;-72
2023/02/28 01:06:27;;;;;;;0.20;0.20;;;;;;;;;;5018285;28;20243;-72
2023/02/28 01:08:55;;;;;;;0.40;0.40;;;;;;;;;;5018140;28;20283;-73
2023/02/28 01:11:23;;;;;;;0.63;0.63;;;;;;;;;;5017666;28;20226;-72
2023/02/28 01:13:51;;;;;;;0.80;0.80;;;;;;;;;;5017269;28;20232;-73
2023/02/28 01:16:22;;;;;;;0.77;0.77;;;;;;;;;;5016962;28;20231;-73
2023/02/28 01:18:52;;;;;;;0.38;0.38;;;;;;;;;;5017642;28;20234;-73
2023/02/28 01:21:23;;;;;;;0.28;0.28;;;;;;;;;;5017886;28;20310;-73
2023/02/28 01:23:51;;;;;;;1.33;1.33;;;;;;;;;;5018121;28;20233;-73
2023/02/28 01:26:20;;;;;;;0.40;0.38;;;;;;;;;;5019629;28;20260;-73
2023/02/28 01:28:48;;;;;;;1.73;1.63;;;;;;;;;;5019352;28;20241;-73
2023/02/28 01:31:16;;;;;;;0.40;0.40;;;;;;;;;;5019548;28;20226;-73
2023/02/28 01:33:44;;;;;;;0.30;0.30;;;;;;;;;;5019722;28;20646;-73
2023/02/28 01:36:14;;;;;;;0.52;0.52;;;;;;;;;;5019947;28;20232;-71
2023/02/28 01:38:42;;;;;;;2.28;2.17;;;;;;;;;;5019219;28;20239;-72
2023/02/28 01:41:14;;;;;;;0.40;0.40;;;;;;;;;;5019984;28;20262;-72
2023/02/28 01:44:02;;;;;;;0.38;0.38;;;;;;;;;;5019947;28;20230;-72
2023/02/28 01:46:31;;;;;;;0.52;0.52;;;;;;;;;;5019715;28;20570;-73
2023/02/28 01:49:02;;;;;;;0.50;0.50;;;;;;;;;;5017923;28;20230;-72
2023/02/28 01:51:34;;;;;;;0.32;0.32;;;;;;;;;;5019332;28;20226;-73
2023/02/28 01:54:03;;;;;;;0.50;0.50;;;;;;;;;;5019803;28;20230;-72
2023/02/28 01:56:33;;;;;;;0.30;0.30;;;;;;;;;;5018990;28;20232;-73
2023/02/28 01:59:06;;;;;;;0.93;0.93;;;;;;;;;;5021084;28;20662;-73
2023/02/28 02:01:38;;;;;;;0.68;0.68;;;;;;;;;;5026680;28;20251;-73
2023/02/28 02:04:11;;;;;;;0.35;0.35;;;;;;;;;;5033012;28;20326;-72
2023/02/28 02:06:43;;;;;;;0.45;0.45;;;;;;;;;;5039908;28;20237;-72
2023/02/28 02:09:15;;;;;;;1.75;1.65;;;;;;;;;;5040468;28;20529;-73
2023/02/28 02:11:45;;;;;;;0.52;0.52;;;;;;;;;;5040462;28;20588;-73
2023/02/28 02:14:40;;;;;;;0.10;0.10;;;;;;;;;;5039870;28;20242;-72
2023/02/28 02:17:29;;;;;;;;;;;;;;;;;;;;;
2023/02/28 02:20:22;;;;;;;0.20;0.20;;;;;;;;;;5040813;28;20322;-72
2023/02/28 02:23:05;;;;;;;0.00;0.00;;;;;;;;;;5039860;28;20255;-73
2023/02/28 02:25:41;;;;;;;0.47;0.47;;;;;;;;;;5038737;28;20223;-73
2023/02/28 02:28:27;;;;;;;0.45;0.45;;;;;;;;;;5043502;28;20248;-73
2023/02/28 02:31:10;;;;;;;0.20;0.20;;;;;;;;;;5043945;28;20601;-72
2023/02/28 02:33:57;;;;;;;1.00;1.00;;;;;;;;;;5060006;28;20226;-73
2023/02/28 02:36:29;;;;;;;0.63;0.55;;;;;;;;;;5143008;27;20277;-73
2023/02/28 02:39:01;;;;;;;0.20;0.20;;;;;;;;;;5142279;27;20227;-72
2023/02/28 02:41:37;;;;;;;0.57;0.57;;;;;;;;;;5142055;28;20254;-73
2023/02/28 02:44:06;;;;;;;0.52;0.52;;;;;;;;;;5143257;28;20263;-73
2023/02/28 02:46:35;;;;;;;0.60;0.60;;;;;;;;;;5142811;28;20262;-73
2023/02/28 02:49:05;;;;;;;0.90;0.90;;;;;;;;;;5113717;28;20235;-73
2023/02/28 02:51:36;;;;;;;0.25;0.25;;;;;;;;;;5021202;28;20226;-73
2023/02/28 02:54:07;;;;;;;0.40;0.40;;;;;;;;;;5019109;28;20274;-73
2023/02/28 02:56:35;;;;;;;0.40;0.40;;;;;;;;;;5018164;28;20232;-73
2023/02/28 02:59:10;;;;;;;0.40;0.40;;;;;;;;;;5019919;28;20231;-73
2023/02/28 03:01:39;;;;;;;1.25;1.23;;;;;;;;;;5019044;28;20247;-73
2023/02/28 03:04:08;;;;;;;0.20;0.20;;;;;;;;;;5019302;28;20292;-73
2023/02/28 03:06:38;;;;;;;1.45;1.45;;;;;;;;;;5019172;28;20241;-72
2023/02/28 03:09:06;;;;;;;1.17;1.17;;;;;;;;;;5019032;28;20291;-72
2023/02/28 03:11:34;;;;;;;2.17;2.08;;;;;;;;;;5018834;28;20225;-72
2023/02/28 03:14:09;;;;;;;0.45;0.45;;;;;;;;;;5018669;28;20221;-73
2023/02/28 03:16:44;;;;;;;0.30;0.30;;;;;;;;;;5025781;28;20234;-73
2023/02/28 03:19:28;;;;;;;0.43;0.40;;;;;;;;;;5038491;28;20231;-74
2023/02/28 03:22:02;;;;;;;2.22;2.13;;;;;;;;;;5038699;28;20247;-73
2023/02/28 03:24:33;;;;;;;0.43;0.43;;;;;;;;;;5038958;28;20239;-73
2023/02/28 03:27:08;;;;;;;1.90;1.90;;;;;;;;;;5037736;28;20318;-73
2023/02/28 03:29:39;;;;;;;0.47;0.47;;;;;;;;;;5038144;28;20748;-73
2023/02/28 03:32:14;;;;;;;0.70;0.70;;;;;;;;;;5038304;28;20304;-73
2023/02/28 03:35:05;;;;;;;0.55;0.55;;;;;;;;;;5037945;28;20237;-73
2023/02/28 03:37:37;;;;;;;0.40;0.40;;;;;;;;;;5038760;28;20314;-71
2023/02/28 03:40:08;;;;;;;0.45;0.45;;;;;;;;;;5041429;28;20802;-72
2023/02/28 03:42:38;;;;;;;0.30;0.30;;;;;;;;;;5041653;28;20324;-73
2023/02/28 03:45:08;;;;;;;0.45;0.45;;;;;;;;;;5041000;28;20231;-73
2023/02/28 03:47:37;;;;;;;0.20;0.20;;;;;;;;;;5025501;28;20234;-74
2023/02/28 03:50:07;;;;;;;0.80;0.80;;;;;;;;;;5021973;28;20264;-73
2023/02/28 03:52:39;;;;;;;0.47;0.47;;;;;;;;;;5021762;28;21057;-72
2023/02/28 03:55:09;;;;;;;0.88;0.88;;;;;;;;;;5023005;28;20231;-72
2023/02/28 03:57:39;;;;;;;1.10;1.08;;;;;;;;;;5022390;28;20227;-74
2023/02/28 04:00:10;;;;;;;0.70;0.70;;;;;;;;;;5022832;28;20242;-73
2023/02/28 04:02:39;;;;;;;0.20;0.20;;;;;;;;;;5022159;28;20249;-73
2023/02/28 04:05:13;;;;;;;0.63;0.63;;;;;;;;;;5053701;27;20239;-73
2023/02/28 04:07:43;;;;;;;1.48;1.48;;;;;;;;;;5146681;27;20235;-73
2023/02/28 04:10:12;;;;;;;0.00;0.00;;;;;;;;;;5144173;27;20287;-72
2023/02/28 04:12:39;;;;;;;0.70;0.70;;;;;;;;;;5144217;27;20234;-73
2023/02/28 04:15:08;;;;;;;0.25;0.25;;;;;;;;;;5144705;27;20412;-73
2023/02/28 04:17:36;;;;;;;0.40;0.40;;;;;;;;;;5143856;27;20236;-72
2023/02/28 04:20:09;;;;;;;0.52;0.52;;;;;;;;;;5144013;27;20235;-72
2023/02/28 04:22:37;;;;;;;0.52;0.52;;;;;;;;;;5143645;27;20245;-72
2023/02/28 04:25:10;;;;;;;0.10;0.10;;;;;;;;;;5143854;27;20366;-74
2023/02/28 04:27:38;;;;;;;0.20;0.20;;;;;;;;;;5143369;27;20219;-73
2023/02/28 04:30:06;;;;;;;0.00;0.00;;;;;;;;;;5144856;27;20316;-73
2023/02/28 04:32:34;;;;;;;0.52;0.52;;;;;;;;;;5144812;27;20222;-73
2023/02/28 04:35:02;;;;;;;1.02;1.02;;;;;;;;;;5145278;27;20512;-73
2023/02/28 04:37:30;;;;;;;0.40;0.40;;;;;;;;;;5144791;27;20288;-73
2023/02/28 04:39:58;;;;;;;0.65;0.65;;;;;;;;;;5134065;27;20229;-72
2023/02/28 04:42:27;;;;;;;1.08;1.08;;;;;;;;;;5020456;28;20245;-73
2023/02/28 04:44:54;;;;;;;0.52;0.52;;;;;;;;;;5023907;28;20293;-73
2023/02/28 04:47:22;;;;;;;0.38;0.38;;;;;;;;;;5057943;28;20286;-73
2023/02/28 04:49:50;;;;;;;1.00;1.00;;;;;;;;;;5057854;28;20224;-74
2023/02/28 04:52:17;;;;;;;1.38;1.35;;;;;;;;;;5058032;28;20233;-74
2023/02/28 04:54:45;;;;;;;1.10;1.10;;;;;;;;;;5040451;28;20234;-73
2023/02/28 04:57:12;;;;;;;0.20;0.20;;;;;;;;;;5037549;28;20244;-73
2023/02/28 05:00:11;;;;;;;0.40;0.40;;;;;;;;;;5037309;28;20253;-74
2023/02/28 05:02:40;;;;;;;0.85;0.85;;;;;;;;;;5039915;28;20255;-73
2023/02/28 05:05:08;;;;;;;0.40;0.40;;;;;;;;;;5039838;28;20230;-73
2023/02/28 05:07:36;;;;;;;1.15;1.15;;;;;;;;;;5039582;28;20231;-72
2023/02/28 05:10:04;;;;;;;0.30;0.30;;;;;;;;;;5042269;28;20310;-73
2023/02/28 05:12:31;;;;;;;0.30;0.30;;;;;;;;;;5039488;28;20225;-73
2023/02/28 05:15:00;;;;;;;0.82;0.82;;;;;;;;;;5050880;28;20288;-74
2023/02/28 05:17:31;;;;;;;0.35;0.35;;;;;;;;;;5059340;28;20235;-73
2023/02/28 05:20:00;;;;;;;0.75;0.75;;;;;;;;;;5037808;28;20231;-75
2023/02/28 05:22:37;;;;;;;1.00;1.00;;;;;;;;;;5039298;28;20257;-74
2023/02/28 05:25:05;;;;;;;0.40;0.40;;;;;;;;;;5039964;28;20231;-73
2023/02/28 05:27:36;;;;;;;0.57;0.57;;;;;;;;;;5043592;28;20230;-74
2023/02/28 05:30:10;;;;;;;0.70;0.70;;;;;;;;;;5039545;28;20226;-73
2023/02/28 05:32:38;;;;;;;0.95;0.95;;;;;;;;;;5038122;28;20257;-73
2023/02/28 05:35:10;;;;;;;0.45;0.45;;;;;;;;;;5036983;28;20221;-73
2023/02/28 05:37:44;;;;;;;0.95;0.95;;;;;;;;;;5037850;28;20282;-73
2023/02/28 05:40:20;;;;;;;0.38;0.38;;;;;;;;;;5037646;28;20647;-73
2023/02/28 05:42:54;;;;;;;0.55;0.55;;;;;;;;;;5037769;28;20247;-73
2023/02/28 05:45:21;;;;;;;0.47;0.47;;;;;;;;;;5038339;28;20225;-74
2023/02/28 05:47:56;;;;;;;0.35;0.35;;;;;;;;;;5038346;28;20228;-72
2023/02/28 05:50:33;;;;;;;0.85;0.85;;;;;;;;;;5037260;28;20234;-73
2023/02/28 05:53:01;;;;;;;0.75;0.75;;;;;;;;;;5038546;28;20249;-73
2023/02/28 05:55:42;;;;;;;;;;;;;;;;;;;;;
2023/02/28 05:58:10;;;;;;;0.30;0.30;;;;;;;;;;5037083;28;20612;-71
2023/02/28 06:00:45;;;;;;;0.93;0.93;;;;;;;;;;5036257;28;20227;-74
2023/02/28 06:03:13;;;;;;;0.93;0.93;;;;;;;;;;5036288;28;20245;-73
2023/02/28 06:05:44;;;;;;;0.80;0.80;;;;;;;;;;5034894;28;20541;-73
2023/02/28 06:08:13;;;;;;;0.43;0.43;;;;;;;;;;5119786;27;20598;-74
2023/02/28 06:10:42;;;;;;;1.20;1.20;;;;;;;;;;5131738;27;20494;-72
2023/02/28 06:13:10;;;;;;;0.30;0.30;;;;;;;;;;5139573;27;20650;-73
2023/02/28 06:15:38;;;;;;;1.27;1.27;;;;;;;;;;5139827;27;20226;-74
2023/02/28 06:18:05;;;;;;;1.20;1.20;;;;;;;;;;5033517;27;20281;-74
2023/02/28 06:20:34;;;;;;;0.85;0.85;;;;;;;;;;5015759;28;20234;-74
2023/02/28 06:23:03;;;;;;;0.47;0.47;;;;;;;;;;5025826;28;20254;-74
2023/02/28 06:25:31;;;;;;;1.65;1.65;;;;;;;;;;5034459;28;20499;-72
2023/02/28 06:28:01;;;;;;;0.85;0.85;;;;;;;;;;5038217;28;20647;-72
2023/02/28 06:30:31;;;;;;;0.65;0.65;;;;;;;;;;5038601;28;20607;-73
2023/02/28 06:32:58;;;;;;;1.15;1.15;;;;;;;;;;5053959;28;20785;-73
2023/02/28 06:35:31;;;;;;;1.27;1.27;;;;;;;;;;5053088;28;20547;-73
2023/02/28 06:37:59;;;;;;;0.75;0.75;;;;;;;;;;5039583;28;20291;-73
2023/02/28 06:40:34;;;;;;;0.80;0.80;;;;;;;;;;5033523;28;20615;-75
2023/02/28 06:43:02;;;;;;;0.95;0.95;;;;;;;;;;5033636;28;20245;-72
2023/02/28 06:45:30;;;;;;;1.27;1.27;;;;;;;;;;5033409;28;20607;-73
2023/02/28 06:47:59;;;;;;;1.15;1.15;;;;;;;;;;5033051;28;20325;-75
2023/02/28 06:50:37;;;;;;;1.70;1.60;;;;;;;;;;5032451;28;20628;-73
2023/02/28 06:53:05;;;;;;;1.85;1.80;;;;;;;;;;5029774;28;20251;-74
2023/02/28 06:55:46;;;;;;;0.80;0.80;;;;;;;;;;5030037;28;20224;-73
2023/02/28 06:58:18;;;;;;;1.35;1.35;;;;;;;;;;5034848;28;20225;-74
2023/02/28 07:00:56;;;;;;;0.38;0.38;;;;;;;;;;5041098;28;20233;-71
2023/02/28 07:03:24;;;;;;;0.93;0.93;;;;;;;;;;5032635;28;20245;-73
2023/02/28 07:05:51;;;;;;;1.67;1.63;;;;;;;;;;5032572;28;20527;-73
2023/02/28 07:08:19;;;;;;;1.05;1.05;;;;;;;;;;5032897;28;20268;-75
2023/02/28 07:10:54;;;;;;;0.93;0.93;;;;;;;;;;5032578;28;20235;-74
2023/02/28 07:13:22;;;;;;;3.20;2.90;;;;;;;;;;5035435;28;20297;-74
2023/02/28 07:15:55;;;;;;;1.75;1.65;;;;;;;;;;5036163;28;20519;-72
2023/02/28 07:18:23;;;;;;;2.13;2.05;;;;;;;;;;5035775;28;20277;-74
2023/02/28 07:20:51;;;;;;;1.30;1.30;;;;;;;;;;5036200;28;20264;-71
2023/02/28 07:23:19;;;;;;;1.70;1.60;;;;;;;;;;5035546;28;20338;-73
2023/02/28 07:25:47;;;;;;;1.85;1.75;;;;;;;;;;5034290;28;20257;-73
2023/02/28 07:28:16;;;;;;;1.25;1.25;;;;;;;;;;5037223;28;20597;-73
2023/02/28 07:30:44;;;;;;;0.82;0.82;;;;;;;;;;5038429;28;20228;-74
2023/02/28 07:33:14;;;;;;;1.60;1.60;;;;;;;;;;5038339;28;20250;-72
2023/02/28 07:35:42;;;;;;;0.70;0.70;;;;;;;;;;5038655;28;20286;-72
2023/02/28 07:38:31;;;;;;;1.23;1.23;;;;;;;;;;5041836;28;20241;-73
2023/02/28 07:41:05;;;;;;;1.00;1.00;;;;;;;;;;5039113;28;20244;-73
2023/02/28 07:43:42;;;;;;;0.75;0.75;;;;;;;;;;5036898;28;20335;-73
2023/02/28 07:46:34;;;;;;;0.52;0.52;;;;;;;;;;5038082;28;20229;-72
2023/02/28 07:49:22;;;;;;;1.73;1.67;;;;;;;;;;5039531;28;20326;-73
2023/02/28 07:51:51;;;;;;;0.60;0.60;;;;;;;;;;5039091;28;20268;-71
2023/02/28 08:04:17;;;;;;;1.80;1.80;;;;;;;;;;5027177;28;20248;-72
2023/02/28 08:06:51;;;;;;;2.10;2.00;;;;;;;;;;5028953;28;20294;-72
2023/02/28 08:09:24;;;;;;;3.10;2.97;;;;;;;;;;5018650;28;20229;-72
2023/02/28 08:11:52;;;;;;;1.40;1.40;;;;;;;;;;5031213;28;20234;-74
2023/02/28 08:14:20;;;;;;;0.90;0.90;;;;;;;;;;5037475;28;20258;-74
2023/02/28 08:16:55;;;;;;;2.30;2.20;;;;;;;;;;5032542;28;20539;-73
2023/02/28 08:19:27;;;;;;;1.83;1.83;;;;;;;;;;5036179;28;20228;-73
2023/02/28 08:21:58;;;;;;;2.28;2.17;;;;;;;;;;5036160;28;20257;-72
2023/02/28 08:24:27;;;;;;;1.25;1.20;;;;;;;;;;5036345;28;20231;-72
2023/02/28 08:26:56;;;;;;;1.45;1.35;;;;;;;;;;5036522;27;20227;-73
2023/02/28 08:29:32;;;;;;;2.00;1.90;;;;;;;;;;5037852;27;21933;-73
2023/02/28 08:32:09;;;;;;;2.45;2.35;;;;;;;;;;5043220;27;20530;-73
2023/02/28 08:34:38;;;;;;;3.33;3.13;;;;;;;;;;5032995;28;20233;-74
2023/02/28 08:37:11;;;;;;;3.33;3.13;;;;;;;;;;5036904;28;20554;-73
2023/02/28 08:39:39;;;;;;;3.40;3.25;;;;;;;;;;5030007;28;20679;-72
2023/02/28 08:42:50;;;;;;;;;;;;;;;;;;;;;
2023/02/28 08:45:26;;;;;;;2.75;2.65;;;;;;;;;;5068345;27;20228;-73
2023/02/28 08:48:15;;;;;;;2.58;2.47;;;;;;;;;;5027920;28;20230;-73
2023/02/28 08:53:49;;;;;;;2.78;2.67;;;;;;;;;;5016177;28;20564;-72
2023/02/28 08:59:33;;;;;;;3.90;3.70;;;;;;;;;;4980785;27;20223;-74
2023/02/28 09:02:13;;;;;;;0.60;0.60;;;;;;;;;;5036159;28;20249;-74
2023/02/28 09:04:49;;;;;;;0.93;0.93;;;;;;;;;;5026246;28;20575;-74
2023/02/28 09:07:17;;;;;;;0.73;0.73;;;;;;;;;;5043938;28;20236;-73
2023/02/28 09:09:55;;;;;;;2.25;2.15;;;;;;;;;;5039942;27;20293;-73
2023/02/28 09:12:36;;;;;;;2.15;2.05;;;;;;;;;;5125196;27;20217;-73
2023/02/28 09:15:19;;;;;;;3.47;3.28;;;;;;;;;;5034489;28;20264;-72
2023/02/28 09:17:53;;;;;;;3.38;3.28;;;;;;;;;;5035330;28;20508;-75
2023/02/28 09:20:44;;;;;;;1.02;1.02;;;;;;;;;;5031954;28;20220;-73
2023/02/28 09:23:14;;;;;;;1.55;1.55;;;;;;;;;;5034779;28;20237;-73
2023/02/28 09:26:14;;;;;;;2.03;1.92;;;;;;;;;;5036148;28;20654;-73
2023/02/28 09:28:48;;;;;;;1.10;1.10;;;;;;;;;;5039233;28;20218;-74
2023/02/28 09:31:41;;;;;;;1.92;1.83;;;;;;;;;;5039636;28;20224;-74
2023/02/28 09:36:58;;;;;;;2.65;2.55;;;;;;;;;;5037807;28;20310;-73
2023/02/28 09:42:33;;;;;;;2.15;2.05;;;;;;;;;;5032127;28;20601;-74
2023/02/28 09:45:24;;;;;;;3.58;3.42;;;;;;;;;;5033139;28;20255;-72
2023/02/28 09:48:15;;;;;;;5.70;5.40;;;;;;;;;;5025517;28;20306;-74
2023/02/28 09:56:31;;;;;;;0.73;0.73;;;;;;;;;;5028767;28;20212;-73
2023/02/28 09:59:02;;;;;;;1.02;1.02;;;;;;;;;;5024303;28;20303;-72
2023/02/28 10:01:33;;;;;;;2.58;2.47;;;;;;;;;;5029090;28;20243;-73
2023/02/28 10:04:08;;;;;;;1.80;1.70;;;;;;;;;;5033712;28;20322;-73
2023/02/28 10:06:45;;;;;;;2.22;2.13;;;;;;;;;;5036256;28;20594;-73
2023/02/28 10:09:15;;;;;;;1.70;1.60;;;;;;;;;;5033882;28;20315;-72
2023/02/28 10:11:47;;;;;;;1.98;1.88;;;;;;;;;;5034427;28;20231;-73
2023/02/28 10:17:38;;;;;;;2.60;2.50;;;;;;;;;;5023809;28;20248;-73
2023/02/28 10:20:40;;;;;;;1.83;1.73;;;;;;;;;;5033026;28;20224;-74
2023/02/28 10:26:08;;;;;;;2.08;1.98;;;;;;;;;;5028567;28;20263;-74
2023/02/28 10:28:37;;;;;;;2.88;2.78;;;;;;;;;;5039000;27;20218;-73
2023/02/28 10:33:49;;;;;;;0.75;0.75;;;;;;;;;;5030660;28;20222;-73
2023/02/28 10:39:30;;;;;;;2.03;1.93;;;;;;;;;;5033465;28;20461;-73
2023/02/28 10:42:31;;;;;;;3.75;3.55;;;;;;;;;;5028639;28;20500;-72
2023/02/28 10:45:19;;;;;;;2.47;2.37;;;;;;;;;;5036079;28;20617;-72
2023/02/28 10:47:56;;;;;;;2.73;2.63;;;;;;;;;;5035599;28;20578;-73
2023/02/28 10:50:47;;;;;;;2.43;2.33;;;;;;;;;;5036329;28;20470;-74
2023/02/28 10:56:41;;;;;;;6.07;5.68;;;;;;;;;;4952842;29;20462;-72
2023/02/28 10:59:41;;;;;;;1.50;1.42;;;;;;;;;;5035077;28;20329;-74
2023/02/28 11:02:32;;;;;;;4.23;4.00;;;;;;;;;;5036678;28;20232;-73
2023/02/28 11:05:06;;;;;;;2.70;2.60;;;;;;;;;;5037203;28;20494;-73
2023/02/28 11:07:37;;;;;;;3.63;3.43;;;;;;;;;;5032825;28;20485;-74
2023/02/28 11:10:06;;;;;;;1.50;1.48;;;;;;;;;;5033745;28;20481;-72
2023/02/28 11:12:36;;;;;;;2.42;2.28;;;;;;;;;;5026668;28;20218;-73
2023/02/28 11:15:47;;;;;;;3.83;3.63;;;;;;;;;;5032118;28;20571;-74
2023/02/28 11:18:27;;;;;;;3.08;2.92;;;;;;;;;;5025010;28;20493;-74
2023/02/28 11:21:13;;;;;;;3.80;3.60;;;;;;;;;;5028853;28;20223;-73
2023/02/28 11:30:01;;;;;;;1.40;1.40;;;;;;;;;;4973897;28;20453;-72
2023/02/28 11:32:33;;;;;;;1.40;1.40;;;;;;;;;;4987018;28;20492;-73
2023/02/28 11:35:22;;;;;;;4.10;3.90;;;;;;;;;;4984937;28;20264;-72
2023/02/28 11:37:57;;;;;;;1.88;1.77;;;;;;;;;;4973123;28;20232;-73
2023/02/28 11:40:30;;;;;;;1.73;1.63;;;;;;;;;;4974008;28;20296;-73
2023/02/28 11:43:05;;;;;;;3.67;3.40;;;;;;;;;;4978549;28;20489;-74
2023/02/28 11:45:47;;;;;;;1.98;1.88;;;;;;;;;;5033382;28;20479;-72
2023/02/28 11:48:21;;;;;;;2.40;2.30;;;;;;;;;;5034322;28;20215;-73
2023/02/28 11:51:16;;;;;;;3.50;3.30;;;;;;;;;;5004252;28;21307;-73
2023/02/28 11:53:58;;;;;;;2.43;2.33;;;;;;;;;;5024448;28;21154;-73
2023/02/28 11:56:31;;;;;;;2.73;2.63;;;;;;;;;;5014843;28;20570;-73
2023/02/28 11:59:28;;;;;;;3.70;3.50;;;;;;;;;;5014631;28;20566;-72
2023/02/28 12:02:26;;;;;;;1.98;1.88;;;;;;;;;;5027713;28;20561;-73
2023/02/28 12:05:38;;;;;;;1.75;1.65;;;;;;;;;;5038019;28;20227;-74
2023/02/28 12:08:24;;;;;;;1.53;1.43;;;;;;;;;;5037150;28;20279;-77
2023/02/28 12:11:06;;;;;;;2.13;2.03;;;;;;;;;;5036383;28;20501;-74
2023/02/28 12:13:52;;;;;;;4.55;4.25;;;;;;;;;;5025758;28;21282;-74
2023/02/28 12:16:29;;;;;;;1.83;1.73;;;;;;;;;;5037953;28;20223;-73
2023/02/28 12:19:12;;;;;;;2.20;2.08;;;;;;;;;;5036802;28;20221;-73
2023/02/28 12:21:48;;;;;;;3.17;3.08;;;;;;;;;;5036889;28;20319;-73
2023/02/28 12:24:33;;;;;;;2.45;2.35;;;;;;;;;;5035986;28;20244;-73
2023/02/28 12:27:16;;;;;;;5.10;4.80;;;;;;;;;;5017132;28;20557;-73
2023/02/28 12:30:05;;;;;;;3.47;3.28;;;;;;;;;;5031807;28;20211;-73
2023/02/28 12:32:47;;;;;;;1.17;1.15;;;;;;;;;;5033974;28;20291;-74
2023/02/28 12:39:07;;;;;;;1.10;1.10;;;;;;;;;;5059536;28;20521;-74
2023/02/28 12:45:14;;;;;;;1.27;1.17;;;;;;;;;;5023334;28;20617;-74
2023/02/28 12:48:39;;;;;;;1.77;1.67;;;;;;;;;;5036681;28;20231;-73
2023/02/28 12:51:23;;;;;;;3.03;2.90;;;;;;;;;;5017303;28;20503;-73
2023/02/28 12:56:49;;;;;;;3.20;3.00;;;;;;;;;;5031444;28;20471;-73
2023/02/28 12:59:28;;;;;;;1.40;1.40;;;;;;;;;;5040642;27;20532;-72
2023/02/28 13:02:14;;;;;;;2.77;2.63;;;;;;;;;;5048751;28;20490;-72
2023/02/28 13:04:59;;;;;;;1.55;1.45;;;;;;;;;;5040439;28;20511;-75
2023/02/28 13:07:42;;;;;;;2.70;2.50;;;;;;;;;;5035303;28;20215;-73
2023/02/28 13:10:28;;;;;;;2.00;1.90;;;;;;;;;;5035442;28;20207;-73
2023/02/28 13:13:17;;;;;;;2.10;2.00;;;;;;;;;;5019101;28;20466;-72
2023/02/28 13:22:30;;;;;;;1.23;1.20;;;;;;;;;;5123752;27;20474;-72
2023/02/28 13:25:39;;;;;;;3.17;3.00;;;;;;;;;;5112533;27;20231;-73
2023/02/28 13:28:34;;;;;;;2.03;1.92;;;;;;;;;;5014859;28;20223;-73
2023/02/28 13:31:45;;;;;;;;;;;;;;;;;;;;;
2023/02/28 13:44:02;;;;;;;1.53;1.43;;;;;;;;;;4965701;28;20656;-72
2023/02/28 13:49:54;;;;;;;1.10;1.10;;;;;;;;;;4939671;29;20226;-72
2023/02/28 13:52:34;;;;;;;2.50;2.40;;;;;;;;;;4944812;28;20217;-73
2023/02/28 13:55:24;;;;;;;3.23;3.07;;;;;;;;;;5017398;28;20500;-72
2023/02/28 13:58:33;;;;;;;3.05;2.95;;;;;;;;;;5017577;28;20474;-73
2023/02/28 14:01:31;;;;;;;1.23;1.23;;;;;;;;;;5043038;27;20219;-73
2023/02/28 14:04:19;;;;;;;0.70;0.70;;;;;;;;;;5000852;28;20295;-72
2023/02/28 14:07:18;;;;;;;1.15;1.15;;;;;;;;;;5031905;27;20219;-73
2023/02/28 14:19:19;;;;;;;2.25;2.15;;;;;;;;;;5014947;28;20859;-73
2023/02/28 14:22:06;;;;;;;1.65;1.58;;;;;;;;;;5014638;28;20599;-72
2023/02/28 14:27:55;;;;;;;1.10;1.10;;;;;;;;;;5031528;28;20229;-72
2023/02/28 14:31:03;;;;;;;4.10;3.85;;;;;;;;;;5046239;28;20556;-74
2023/02/28 14:33:50;;;;;;;1.17;1.17;;;;;;;;;;5068396;28;20685;-73
2023/02/28 14:36:35;;;;;;;1.33;1.30;;;;;;;;;;5069326;28;20483;-71
2023/02/28 14:39:08;;;;;;;0.80;0.80;;;;;;;;;;5043343;28;20215;-74
2023/02/28 14:41:38;;;;;;;1.70;1.60;;;;;;;;;;5031204;28;20587;-73
2023/02/28 14:44:19;;;;;;;3.25;3.05;;;;;;;;;;5036795;28;20568;-75
2023/02/28 14:55:58;;;;;;;;;;;;;;;;;;;;;
2023/02/28 14:58:56;;;;;;;1.70;1.60;;;;;;;;;;5031458;28;20219;-73
2023/02/28 15:01:50;;;;;;;3.20;3.00;;;;;;;;;;5027658;28;20319;-72
2023/02/28 15:04:44;;;;;;;1.25;1.25;;;;;;;;;;5018879;28;20229;-74
2023/02/28 15:16:53;;;;;;;1.40;1.40;;;;;;;;;;5031380;28;20261;-73
2023/02/28 15:19:38;;;;;;;3.30;3.15;;;;;;;;;;5031895;28;20239;-74
2023/02/28 15:28:26;;;;;;;1.63;1.60;;;;;;;;;;5034824;28;20222;-73
2023/02/28 15:30:56;;;;;;;3.65;3.45;;;;;;;;;;5024188;28;20303;-73
2023/02/28 15:33:59;;;;;;;4.97;4.68;;;;;;;;;;5068455;27;20212;-74
2023/02/28 15:36:33;;;;;;;4.57;4.28;;;;;;;;;;5064453;27;20230;-73
2023/02/28 15:39:17;;;;;;;2.42;2.33;;;;;;;;;;5036819;28;20219;-73
2023/02/28 15:41:49;;;;;;;1.70;1.60;;;;;;;;;;5038049;28;20211;-72
2023/02/28 15:44:22;;;;;;;4.93;4.55;;;;;;;;;;5035915;28;20225;-73
2023/02/28 15:47:22;;;;;;;5.20;4.90;;;;;;;;;;5037983;28;20585;-73
2023/02/28 15:50:01;;;;;;;5.55;5.15;;;;;;;;;;5035105;28;20657;-74
2023/02/28 15:56:02;;;;;;;2.30;2.20;;;;;;;;;;5014690;28;20239;-73
2023/02/28 16:01:38;;;;;;;3.95;3.72;;;;;;;;;;5034368;28;20227;-73
2023/02/28 16:04:31;;;;;;;2.45;2.35;;;;;;;;;;5037196;28;20283;-72
2023/02/28 16:07:50;;;;;;;3.50;3.30;;;;;;;;;;5034820;28;20627;-72
2023/02/28 16:10:34;;;;;;;0.52;0.52;;;;;;;;;;5036047;28;20214;-73
2023/02/28 16:13:35;;;;;;;2.58;2.47;;;;;;;;;;5035003;28;20254;-73
2023/02/28 16:16:10;;;;;;;1.50;1.42;;;;;;;;;;5028631;28;20207;-72
2023/02/28 16:18:40;;;;;;;2.28;2.17;;;;;;;;;;5036753;28;20268;-72
2023/02/28 16:21:13;;;;;;;2.67;2.58;;;;;;;;;;5036433;28;20219;-73
2023/02/28 16:23:55;;;;;;;1.83;1.73;;;;;;;;;;5037539;28;20306;-74
2023/02/28 16:26:28;;;;;;;2.28;2.17;;;;;;;;;;5034946;28;20266;-73
2023/02/28 16:28:58;;;;;;;2.00;1.90;;;;;;;;;;5035348;28;20253;-74
2023/02/28 16:31:25;;;;;;;1.52;1.42;;;;;;;;;;5035924;28;20238;-73
2023/02/28 16:33:54;;;;;;;1.33;1.33;;;;;;;;;;5032892;28;20222;-72
2023/02/28 16:36:25;;;;;;;1.88;1.77;;;;;;;;;;5029724;28;20233;-73
2023/02/28 16:38:53;;;;;;;2.80;2.70;;;;;;;;;;5020967;28;20234;-74
2023/02/28 16:41:22;;;;;;;2.03;1.92;;;;;;;;;;5030481;27;20224;-74
2023/02/28 16:44:03;;;;;;;2.30;2.20;;;;;;;;;;5049811;28;20222;-74
2023/02/28 16:46:45;;;;;;;1.58;1.48;;;;;;;;;;5040519;28;20240;-74
2023/02/28 16:49:30;;;;;;;1.23;1.23;;;;;;;;;;5037930;28;20217;-75
2023/02/28 16:52:02;;;;;;;0.75;0.75;;;;;;;;;;5034769;28;20325;-74
2023/02/28 16:54:32;;;;;;;6.65;6.35;;;;;;;;;;5034167;28;20509;-73
2023/02/28 16:57:26;;;;;;;0.88;0.88;;;;;;;;;;5036302;28;20229;-73
2023/02/28 17:00:08;;;;;;;4.55;4.35;;;;;;;;;;5036933;28;20498;-73
2023/02/28 17:02:39;;;;;;;2.23;2.10;;;;;;;;;;5036510;28;20262;-72
2023/02/28 17:05:18;;;;;;;2.38;2.28;;;;;;;;;;5036672;28;20499;-72
2023/02/28 17:08:17;;;;;;;1.67;1.60;;;;;;;;;;5017902;28;20226;-73
2023/02/28 17:11:04;;;;;;;7.00;6.70;;;;;;;;;;5029135;28;20500;-72
2023/02/28 17:13:36;;;;;;;1.85;1.75;;;;;;;;;;5050119;28;20494;-73
2023/02/28 17:16:20;;;;;;;0.50;0.50;;;;;;;;;;5037108;28;20237;-73
2023/02/28 17:21:37;;;;;;;2.22;2.13;;;;;;;;;;5038293;28;20324;-72
2023/02/28 17:24:06;;;;;;;1.10;1.10;;;;;;;;;;5037581;28;20227;-73
2023/02/28 17:26:37;;;;;;;0.88;0.88;;;;;;;;;;5037378;28;20289;-74
2023/02/28 17:29:09;;;;;;;1.65;1.55;;;;;;;;;;5052246;28;20252;-73
2023/02/28 17:31:39;;;;;;;2.17;2.08;;;;;;;;;;5030893;28;20211;-73
2023/02/28 17:34:08;;;;;;;1.88;1.77;;;;;;;;;;5042032;28;20226;-73
2023/02/28 17:36:36;;;;;;;1.02;1.02;;;;;;;;;;5042165;28;20734;-73
2023/02/28 17:39:09;;;;;;;1.23;1.20;;;;;;;;;;5041338;28;20213;-72
2023/02/28 17:41:51;;;;;;;0.80;0.80;;;;;;;;;;5043028;28;20578;-73
2023/02/28 17:44:23;;;;;;;1.75;1.65;;;;;;;;;;5044294;28;20212;-72
2023/02/28 17:47:08;;;;;;;2.20;2.10;;;;;;;;;;5041525;28;20248;-72